sensor_id;sensor_type;location;lat;lon;timestamp;P1;durP1;ratioP1;P2;durP2;ratioP2
68438;SDS011;55421;51.600;5.718;2023-01-29T00:02:06;26.30;;;13.70;;
68438;SDS011;55421;51.600;5.718;2023-01-29T00:04:32;27.60;;;14.30;;
68438;SDS011;55421;51.600;5.718;2023-01-29T00:06:59;34.90;;;14.90;;
68438;SDS011;55421;51.600;5.718;2023-01-29T00:09:27;31.20;;;15.30;;
68438;SDS011;55421;51.600;5.718;2023-01-29T00:11:53;32.60;;;15.70;;
68438;SDS011;55421;51.600;5.718;2023-01-29T00:14:20;30.50;;;15.40;;
68438;SDS011;55421;51.600;5.718;2023-01-29T00:16:46;29.70;;;15.10;;
68438;SDS011;55421;51.600;5.718;2023-01-29T00:19:13;31.20;;;15.30;;
68438;SDS011;55421;51.600;5.718;2023-01-29T00:21:40;27.20;;;13.70;;
68438;SDS011;55421;51.600;5.718;2023-01-29T00:24:06;22.70;;;11.80;;
68438;SDS011;55421;51.600;5.718;2023-01-29T00:26:33;24.80;;;12.30;;
68438;SDS011;55421;51.600;5.718;2023-01-29T00:29:00;30.80;;;13.00;;
68438;SDS011;55421;51.600;5.718;2023-01-29T00:31:27;30.90;;;15.10;;
68438;SDS011;55421;51.600;5.718;2023-01-29T00:33:54;28.50;;;14.20;;
68438;SDS011;55421;51.600;5.718;2023-01-29T00:36:21;25.40;;;13.00;;
68438;SDS011;55421;51.600;5.718;2023-01-29T00:38:53;26.90;;;13.60;;
68438;SDS011;55421;51.600;5.718;2023-01-29T00:41:29;26.80;;;13.60;;
68438;SDS011;55421;51.600;5.718;2023-01-29T00:44:15;29.40;;;13.80;;
68438;SDS011;55421;51.600;5.718;2023-01-29T00:47:02;30.70;;;14.30;;
68438;SDS011;55421;51.600;5.718;2023-01-29T00:49:29;27.50;;;12.90;;
68438;SDS011;55421;51.600;5.718;2023-01-29T00:51:56;28.50;;;14.10;;
68438;SDS011;55421;51.600;5.718;2023-01-29T00:54:41;25.00;;;12.20;;
68438;SDS011;55421;51.600;5.718;2023-01-29T00:57:08;24.40;;;12.30;;
68438;SDS011;55421;51.600;5.718;2023-01-29T00:59:34;25.20;;;12.10;;
68438;SDS011;55421;51.600;5.718;2023-01-29T01:02:01;24.10;;;10.90;;
68438;SDS011;55421;51.600;5.718;2023-01-29T01:04:46;25.00;;;13.00;;
68438;SDS011;55421;51.600;5.718;2023-01-29T01:07:12;27.00;;;13.20;;
68438;SDS011;55421;51.600;5.718;2023-01-29T01:09:39;26.60;;;13.80;;
68438;SDS011;55421;51.600;5.718;2023-01-29T01:12:24;29.50;;;13.00;;
68438;SDS011;55421;51.600;5.718;2023-01-29T01:14:50;23.90;;;12.00;;
68438;SDS011;55421;51.600;5.718;2023-01-29T01:17:17;25.60;;;12.10;;
68438;SDS011;55421;51.600;5.718;2023-01-29T01:19:43;24.10;;;13.00;;
68438;SDS011;55421;51.600;5.718;2023-01-29T01:22:10;28.00;;;13.70;;
68438;SDS011;55421;51.600;5.718;2023-01-29T01:24:37;27.90;;;12.90;;
68438;SDS011;55421;51.600;5.718;2023-01-29T01:27:05;26.90;;;13.10;;
68438;SDS011;55421;51.600;5.718;2023-01-29T01:29:31;27.40;;;13.30;;
68438;SDS011;55421;51.600;5.718;2023-01-29T01:31:58;29.30;;;14.10;;
68438;SDS011;55421;51.600;5.718;2023-01-29T01:34:25;25.40;;;12.60;;
68438;SDS011;55421;51.600;5.718;2023-01-29T01:36:53;29.40;;;13.40;;
68438;SDS011;55421;51.600;5.718;2023-01-29T01:39:22;20.50;;;10.50;;
68438;SDS011;55421;51.600;5.718;2023-01-29T01:41:51;28.10;;;12.30;;
68438;SDS011;55421;51.600;5.718;2023-01-29T01:44:57;30.50;;;14.70;;
68438;SDS011;55421;51.600;5.718;2023-01-29T01:47:40;28.90;;;14.20;;
68438;SDS011;55421;51.600;5.718;2023-01-29T01:52:46;25.80;;;12.90;;
68438;SDS011;55421;51.600;5.718;2023-01-29T01:55:18;28.20;;;14.00;;
68438;SDS011;55421;51.600;5.718;2023-01-29T01:57:52;29.60;;;13.90;;
68438;SDS011;55421;51.600;5.718;2023-01-29T02:00:24;26.70;;;13.60;;
68438;SDS011;55421;51.600;5.718;2023-01-29T02:02:51;31.10;;;14.60;;
68438;SDS011;55421;51.600;5.718;2023-01-29T02:05:38;29.50;;;14.30;;
68438;SDS011;55421;51.600;5.718;2023-01-29T02:08:52;27.60;;;12.90;;
68438;SDS011;55421;51.600;5.718;2023-01-29T02:11:41;23.60;;;12.00;;
68438;SDS011;55421;51.600;5.718;2023-01-29T02:14:08;33.00;;;14.30;;
68438;SDS011;55421;51.600;5.718;2023-01-29T02:16:36;30.20;;;14.20;;
68438;SDS011;55421;51.600;5.718;2023-01-29T02:19:14;27.50;;;13.00;;
68438;SDS011;55421;51.600;5.718;2023-01-29T02:22:24;36.90;;;16.30;;
68438;SDS011;55421;51.600;5.718;2023-01-29T02:28:40;28.60;;;13.80;;
68438;SDS011;55421;51.600;5.718;2023-01-29T02:31:58;33.30;;;15.50;;
68438;SDS011;55421;51.600;5.718;2023-01-29T02:34:37;36.20;;;16.60;;
68438;SDS011;55421;51.600;5.718;2023-01-29T02:37:47;39.80;;;17.60;;
68438;SDS011;55421;51.600;5.718;2023-01-29T02:43:32;28.50;;;13.70;;
68438;SDS011;55421;51.600;5.718;2023-01-29T02:49:21;33.90;;;16.10;;
68438;SDS011;55421;51.600;5.718;2023-01-29T02:54:59;39.80;;;17.90;;
68438;SDS011;55421;51.600;5.718;2023-01-29T02:57:34;38.00;;;18.00;;
68438;SDS011;55421;51.600;5.718;2023-01-29T03:00:16;39.00;;;17.70;;
68438;SDS011;55421;51.600;5.718;2023-01-29T03:02:50;35.40;;;16.60;;
68438;SDS011;55421;51.600;5.718;2023-01-29T03:05:57;41.20;;;16.10;;
68438;SDS011;55421;51.600;5.718;2023-01-29T03:08:43;37.80;;;17.40;;
68438;SDS011;55421;51.600;5.718;2023-01-29T03:11:16;38.90;;;18.20;;
68438;SDS011;55421;51.600;5.718;2023-01-29T03:13:58;40.00;;;18.70;;
68438;SDS011;55421;51.600;5.718;2023-01-29T03:16:36;39.00;;;18.70;;
68438;SDS011;55421;51.600;5.718;2023-01-29T03:19:37;39.90;;;19.50;;
68438;SDS011;55421;51.600;5.718;2023-01-29T03:22:09;38.10;;;17.90;;
68438;SDS011;55421;51.600;5.718;2023-01-29T03:24:44;35.40;;;15.60;;
68438;SDS011;55421;51.600;5.718;2023-01-29T03:27:36;36.60;;;14.80;;
68438;SDS011;55421;51.600;5.718;2023-01-29T03:30:28;39.00;;;17.70;;
68438;SDS011;55421;51.600;5.718;2023-01-29T03:33:18;44.30;;;20.30;;
68438;SDS011;55421;51.600;5.718;2023-01-29T03:35:54;44.10;;;20.20;;
68438;SDS011;55421;51.600;5.718;2023-01-29T03:38:25;39.80;;;18.70;;
68438;SDS011;55421;51.600;5.718;2023-01-29T03:41:03;33.70;;;17.20;;
68438;SDS011;55421;51.600;5.718;2023-01-29T03:43:55;41.90;;;19.50;;
68438;SDS011;55421;51.600;5.718;2023-01-29T03:46:40;41.60;;;19.00;;
68438;SDS011;55421;51.600;5.718;2023-01-29T03:49:29;42.70;;;18.80;;
68438;SDS011;55421;51.600;5.718;2023-01-29T03:52:21;41.70;;;19.40;;
68438;SDS011;55421;51.600;5.718;2023-01-29T03:55:03;43.50;;;19.60;;
68438;SDS011;55421;51.600;5.718;2023-01-29T03:57:59;43.20;;;19.90;;
68438;SDS011;55421;51.600;5.718;2023-01-29T04:00:53;41.00;;;19.80;;
68438;SDS011;55421;51.600;5.718;2023-01-29T04:06:12;43.40;;;20.10;;
68438;SDS011;55421;51.600;5.718;2023-01-29T04:08:57;45.20;;;20.30;;
68438;SDS011;55421;51.600;5.718;2023-01-29T04:11:29;41.70;;;19.90;;
68438;SDS011;55421;51.600;5.718;2023-01-29T04:13:58;33.80;;;15.20;;
68438;SDS011;55421;51.600;5.718;2023-01-29T04:16:30;43.10;;;19.70;;
68438;SDS011;55421;51.600;5.718;2023-01-29T04:19:01;41.50;;;20.40;;
68438;SDS011;55421;51.600;5.718;2023-01-29T04:21:28;46.50;;;22.10;;
68438;SDS011;55421;51.600;5.718;2023-01-29T04:23:57;40.60;;;19.70;;
68438;SDS011;55421;51.600;5.718;2023-01-29T04:26:34;45.20;;;21.40;;
68438;SDS011;55421;51.600;5.718;2023-01-29T04:29:19;41.60;;;19.80;;
68438;SDS011;55421;51.600;5.718;2023-01-29T04:43:25;42.90;;;20.40;;
68438;SDS011;55421;51.600;5.718;2023-01-29T04:52:19;44.00;;;18.80;;
68438;SDS011;55421;51.600;5.718;2023-01-29T04:54:56;37.50;;;18.10;;
68438;SDS011;55421;51.600;5.718;2023-01-29T05:00:08;37.80;;;17.80;;
68438;SDS011;55421;51.600;5.718;2023-01-29T05:02:45;34.30;;;16.60;;
68438;SDS011;55421;51.600;5.718;2023-01-29T05:05:13;41.00;;;17.50;;
68438;SDS011;55421;51.600;5.718;2023-01-29T05:07:43;34.00;;;16.20;;
68438;SDS011;55421;51.600;5.718;2023-01-29T05:10:13;33.20;;;15.40;;
68438;SDS011;55421;51.600;5.718;2023-01-29T05:12:46;40.20;;;18.30;;
68438;SDS011;55421;51.600;5.718;2023-01-29T05:15:30;43.90;;;18.90;;
68438;SDS011;55421;51.600;5.718;2023-01-29T05:18:02;39.00;;;17.90;;
68438;SDS011;55421;51.600;5.718;2023-01-29T05:20:36;36.80;;;17.30;;
68438;SDS011;55421;51.600;5.718;2023-01-29T05:23:09;38.60;;;18.10;;
68438;SDS011;55421;51.600;5.718;2023-01-29T05:25:41;38.10;;;17.10;;
68438;SDS011;55421;51.600;5.718;2023-01-29T05:28:09;32.20;;;14.70;;
68438;SDS011;55421;51.600;5.718;2023-01-29T05:30:43;36.50;;;17.10;;
68438;SDS011;55421;51.600;5.718;2023-01-29T05:33:31;30.70;;;15.40;;
68438;SDS011;55421;51.600;5.718;2023-01-29T05:35:58;37.70;;;17.70;;
68438;SDS011;55421;51.600;5.718;2023-01-29T05:38:25;36.30;;;17.10;;
68438;SDS011;55421;51.600;5.718;2023-01-29T05:40:52;37.70;;;18.20;;
68438;SDS011;55421;51.600;5.718;2023-01-29T05:43:21;31.40;;;13.90;;
68438;SDS011;55421;51.600;5.718;2023-01-29T05:45:57;37.00;;;16.10;;
68438;SDS011;55421;51.600;5.718;2023-01-29T05:48:27;44.00;;;19.70;;
68438;SDS011;55421;51.600;5.718;2023-01-29T05:51:01;37.30;;;17.70;;
68438;SDS011;55421;51.600;5.718;2023-01-29T05:53:30;30.50;;;15.00;;
68438;SDS011;55421;51.600;5.718;2023-01-29T05:56:00;35.10;;;16.50;;
68438;SDS011;55421;51.600;5.718;2023-01-29T05:58:29;40.70;;;18.60;;
68438;SDS011;55421;51.600;5.718;2023-01-29T06:00:57;35.00;;;17.70;;
68438;SDS011;55421;51.600;5.718;2023-01-29T06:03:23;38.30;;;18.50;;
68438;SDS011;55421;51.600;5.718;2023-01-29T06:05:50;41.50;;;19.60;;
68438;SDS011;55421;51.600;5.718;2023-01-29T06:08:16;37.60;;;16.80;;
68438;SDS011;55421;51.600;5.718;2023-01-29T06:10:43;33.40;;;15.70;;
68438;SDS011;55421;51.600;5.718;2023-01-29T06:13:09;37.10;;;17.10;;
68438;SDS011;55421;51.600;5.718;2023-01-29T06:15:38;38.70;;;18.50;;
68438;SDS011;55421;51.600;5.718;2023-01-29T06:18:06;42.00;;;19.90;;
68438;SDS011;55421;51.600;5.718;2023-01-29T06:20:32;41.80;;;20.10;;
68438;SDS011;55421;51.600;5.718;2023-01-29T06:22:59;37.90;;;17.30;;
68438;SDS011;55421;51.600;5.718;2023-01-29T06:25:25;38.60;;;18.60;;
68438;SDS011;55421;51.600;5.718;2023-01-29T06:27:52;39.60;;;18.70;;
68438;SDS011;55421;51.600;5.718;2023-01-29T06:30:19;39.80;;;18.90;;
68438;SDS011;55421;51.600;5.718;2023-01-29T06:32:45;38.00;;;18.70;;
68438;SDS011;55421;51.600;5.718;2023-01-29T06:35:12;42.10;;;19.30;;
68438;SDS011;55421;51.600;5.718;2023-01-29T06:37:39;42.80;;;19.40;;
68438;SDS011;55421;51.600;5.718;2023-01-29T06:40:06;40.10;;;17.30;;
68438;SDS011;55421;51.600;5.718;2023-01-29T06:42:36;40.30;;;18.40;;
68438;SDS011;55421;51.600;5.718;2023-01-29T06:45:03;35.20;;;16.40;;
68438;SDS011;55421;51.600;5.718;2023-01-29T06:47:29;42.60;;;19.20;;
68438;SDS011;55421;51.600;5.718;2023-01-29T06:49:56;46.70;;;21.10;;
68438;SDS011;55421;51.600;5.718;2023-01-29T06:52:23;44.10;;;19.30;;
68438;SDS011;55421;51.600;5.718;2023-01-29T06:54:54;37.40;;;17.90;;
68438;SDS011;55421;51.600;5.718;2023-01-29T06:57:23;40.60;;;19.00;;
68438;SDS011;55421;51.600;5.718;2023-01-29T06:59:49;43.80;;;20.10;;
68438;SDS011;55421;51.600;5.718;2023-01-29T07:02:16;44.40;;;20.60;;
68438;SDS011;55421;51.600;5.718;2023-01-29T07:04:43;42.00;;;17.60;;
68438;SDS011;55421;51.600;5.718;2023-01-29T07:07:09;40.60;;;19.60;;
68438;SDS011;55421;51.600;5.718;2023-01-29T07:09:39;42.60;;;18.30;;
68438;SDS011;55421;51.600;5.718;2023-01-29T07:12:07;49.70;;;21.40;;
68438;SDS011;55421;51.600;5.718;2023-01-29T07:14:38;37.00;;;16.60;;
68438;SDS011;55421;51.600;5.718;2023-01-29T07:17:05;41.00;;;18.90;;
68438;SDS011;55421;51.600;5.718;2023-01-29T07:19:32;37.80;;;18.10;;
68438;SDS011;55421;51.600;5.718;2023-01-29T07:21:59;49.00;;;22.10;;
68438;SDS011;55421;51.600;5.718;2023-01-29T07:24:28;45.60;;;19.90;;
68438;SDS011;55421;51.600;5.718;2023-01-29T07:26:54;40.10;;;19.00;;
68438;SDS011;55421;51.600;5.718;2023-01-29T07:29:22;39.70;;;19.50;;
68438;SDS011;55421;51.600;5.718;2023-01-29T07:31:48;43.20;;;20.00;;
68438;SDS011;55421;51.600;5.718;2023-01-29T07:34:15;44.00;;;20.50;;
68438;SDS011;55421;51.600;5.718;2023-01-29T07:36:41;46.20;;;20.60;;
68438;SDS011;55421;51.600;5.718;2023-01-29T07:39:08;49.00;;;20.50;;
68438;SDS011;55421;51.600;5.718;2023-01-29T07:41:34;39.40;;;18.80;;
68438;SDS011;55421;51.600;5.718;2023-01-29T07:44:01;39.70;;;18.70;;
68438;SDS011;55421;51.600;5.718;2023-01-29T07:46:27;39.50;;;18.30;;
68438;SDS011;55421;51.600;5.718;2023-01-29T07:48:54;38.60;;;16.90;;
68438;SDS011;55421;51.600;5.718;2023-01-29T07:51:20;42.80;;;19.20;;
68438;SDS011;55421;51.600;5.718;2023-01-29T07:53:47;45.60;;;21.40;;
68438;SDS011;55421;51.600;5.718;2023-01-29T07:56:14;41.20;;;19.50;;
68438;SDS011;55421;51.600;5.718;2023-01-29T07:58:40;38.40;;;18.20;;
68438;SDS011;55421;51.600;5.718;2023-01-29T08:01:07;40.10;;;18.60;;
68438;SDS011;55421;51.600;5.718;2023-01-29T08:03:33;43.60;;;20.00;;
68438;SDS011;55421;51.600;5.718;2023-01-29T08:06:02;41.60;;;20.20;;
68438;SDS011;55421;51.600;5.718;2023-01-29T08:08:29;41.70;;;19.90;;
68438;SDS011;55421;51.600;5.718;2023-01-29T08:10:56;47.40;;;21.00;;
68438;SDS011;55421;51.600;5.718;2023-01-29T08:13:25;40.90;;;20.40;;
68438;SDS011;55421;51.600;5.718;2023-01-29T08:15:52;42.90;;;19.70;;
68438;SDS011;55421;51.600;5.718;2023-01-29T08:18:18;36.20;;;17.30;;
68438;SDS011;55421;51.600;5.718;2023-01-29T08:20:45;45.60;;;19.80;;
68438;SDS011;55421;51.600;5.718;2023-01-29T08:23:13;48.30;;;22.20;;
68438;SDS011;55421;51.600;5.718;2023-01-29T08:25:41;41.20;;;19.40;;
68438;SDS011;55421;51.600;5.718;2023-01-29T08:28:08;34.80;;;17.00;;
68438;SDS011;55421;51.600;5.718;2023-01-29T08:30:35;37.60;;;17.90;;
68438;SDS011;55421;51.600;5.718;2023-01-29T08:33:02;41.20;;;19.70;;
68438;SDS011;55421;51.600;5.718;2023-01-29T08:35:29;41.50;;;19.90;;
68438;SDS011;55421;51.600;5.718;2023-01-29T08:37:58;45.80;;;20.80;;
68438;SDS011;55421;51.600;5.718;2023-01-29T08:40:28;39.10;;;19.30;;
68438;SDS011;55421;51.600;5.718;2023-01-29T08:43:03;44.80;;;19.60;;
68438;SDS011;55421;51.600;5.718;2023-01-29T08:45:36;41.50;;;19.70;;
68438;SDS011;55421;51.600;5.718;2023-01-29T08:48:06;35.40;;;17.10;;
68438;SDS011;55421;51.600;5.718;2023-01-29T08:50:36;42.70;;;20.70;;
68438;SDS011;55421;51.600;5.718;2023-01-29T08:53:04;36.80;;;17.70;;
68438;SDS011;55421;51.600;5.718;2023-01-29T08:55:39;43.20;;;19.80;;
68438;SDS011;55421;51.600;5.718;2023-01-29T08:58:07;49.80;;;21.90;;
68438;SDS011;55421;51.600;5.718;2023-01-29T09:00:36;44.30;;;20.60;;
68438;SDS011;55421;51.600;5.718;2023-01-29T09:03:03;35.40;;;17.70;;
68438;SDS011;55421;51.600;5.718;2023-01-29T09:05:34;35.10;;;18.20;;
68438;SDS011;55421;51.600;5.718;2023-01-29T09:08:02;38.80;;;20.00;;
68438;SDS011;55421;51.600;5.718;2023-01-29T09:10:29;50.20;;;21.40;;
68438;SDS011;55421;51.600;5.718;2023-01-29T09:12:56;42.20;;;20.10;;
68438;SDS011;55421;51.600;5.718;2023-01-29T09:15:22;39.80;;;19.90;;
68438;SDS011;55421;51.600;5.718;2023-01-29T09:17:50;41.80;;;19.80;;
68438;SDS011;55421;51.600;5.718;2023-01-29T09:20:17;43.80;;;20.30;;
68438;SDS011;55421;51.600;5.718;2023-01-29T09:22:45;43.20;;;20.00;;
68438;SDS011;55421;51.600;5.718;2023-01-29T09:25:12;39.40;;;17.30;;
68438;SDS011;55421;51.600;5.718;2023-01-29T09:27:39;34.10;;;16.20;;
68438;SDS011;55421;51.600;5.718;2023-01-29T09:30:06;42.30;;;19.60;;
68438;SDS011;55421;51.600;5.718;2023-01-29T09:32:33;38.50;;;18.40;;
68438;SDS011;55421;51.600;5.718;2023-01-29T09:34:59;39.20;;;18.50;;
68438;SDS011;55421;51.600;5.718;2023-01-29T09:37:26;37.40;;;17.80;;
68438;SDS011;55421;51.600;5.718;2023-01-29T09:39:52;37.10;;;18.40;;
68438;SDS011;55421;51.600;5.718;2023-01-29T09:42:45;38.20;;;18.60;;
68438;SDS011;55421;51.600;5.718;2023-01-29T09:45:22;37.20;;;18.40;;
68438;SDS011;55421;51.600;5.718;2023-01-29T09:47:50;37.10;;;19.20;;
68438;SDS011;55421;51.600;5.718;2023-01-29T09:50:35;34.70;;;17.80;;
68438;SDS011;55421;51.600;5.718;2023-01-29T09:53:22;33.60;;;16.20;;
68438;SDS011;55421;51.600;5.718;2023-01-29T09:56:00;39.50;;;18.00;;
68438;SDS011;55421;51.600;5.718;2023-01-29T09:58:40;36.40;;;17.90;;
68438;SDS011;55421;51.600;5.718;2023-01-29T10:01:26;32.80;;;16.00;;
68438;SDS011;55421;51.600;5.718;2023-01-29T10:13:14;39.70;;;19.40;;
68438;SDS011;55421;51.600;5.718;2023-01-29T10:22:28;35.50;;;17.80;;
68438;SDS011;55421;51.600;5.718;2023-01-29T10:25:18;30.60;;;15.30;;
68438;SDS011;55421;51.600;5.718;2023-01-29T10:30:39;29.70;;;14.50;;
68438;SDS011;55421;51.600;5.718;2023-01-29T10:33:37;37.70;;;17.50;;
68438;SDS011;55421;51.600;5.718;2023-01-29T10:36:21;38.60;;;18.10;;
68438;SDS011;55421;51.600;5.718;2023-01-29T10:39:01;35.60;;;17.20;;
68438;SDS011;55421;51.600;5.718;2023-01-29T10:41:41;30.90;;;16.10;;
68438;SDS011;55421;51.600;5.718;2023-01-29T10:44:36;37.40;;;17.70;;
68438;SDS011;55421;51.600;5.718;2023-01-29T10:54:14;33.70;;;16.80;;
68438;SDS011;55421;51.600;5.718;2023-01-29T10:57:33;33.30;;;17.30;;
68438;SDS011;55421;51.600;5.718;2023-01-29T11:00:20;29.90;;;15.00;;
68438;SDS011;55421;51.600;5.718;2023-01-29T11:02:52;27.30;;;14.30;;
68438;SDS011;55421;51.600;5.718;2023-01-29T11:05:29;35.90;;;16.00;;
68438;SDS011;55421;51.600;5.718;2023-01-29T11:08:09;36.60;;;17.50;;
68438;SDS011;55421;51.600;5.718;2023-01-29T11:13:28;34.70;;;15.60;;
68438;SDS011;55421;51.600;5.718;2023-01-29T11:16:07;33.50;;;16.30;;
68438;SDS011;55421;51.600;5.718;2023-01-29T11:18:56;30.90;;;16.40;;
68438;SDS011;55421;51.600;5.718;2023-01-29T11:21:28;31.40;;;16.50;;
68438;SDS011;55421;51.600;5.718;2023-01-29T11:24:06;32.40;;;17.20;;
68438;SDS011;55421;51.600;5.718;2023-01-29T11:29:39;32.90;;;15.90;;
68438;SDS011;55421;51.600;5.718;2023-01-29T11:32:31;23.30;;;12.90;;
68438;SDS011;55421;51.600;5.718;2023-01-29T11:37:44;27.50;;;13.10;;
68438;SDS011;55421;51.600;5.718;2023-01-29T11:40:38;28.90;;;14.70;;
68438;SDS011;55421;51.600;5.718;2023-01-29T11:43:18;27.60;;;12.90;;
68438;SDS011;55421;51.600;5.718;2023-01-29T11:45:48;26.10;;;14.40;;
68438;SDS011;55421;51.600;5.718;2023-01-29T11:48:19;27.20;;;14.70;;
68438;SDS011;55421;51.600;5.718;2023-01-29T11:50:56;26.60;;;14.10;;
68438;SDS011;55421;51.600;5.718;2023-01-29T11:53:39;26.00;;;13.80;;
68438;SDS011;55421;51.600;5.718;2023-01-29T11:56:41;28.30;;;13.50;;
68438;SDS011;55421;51.600;5.718;2023-01-29T12:02:04;25.00;;;13.50;;
68438;SDS011;55421;51.600;5.718;2023-01-29T12:04:44;26.60;;;13.10;;
68438;SDS011;55421;51.600;5.718;2023-01-29T12:07:14;27.10;;;13.60;;
68438;SDS011;55421;51.600;5.718;2023-01-29T12:09:54;25.20;;;14.00;;
68438;SDS011;55421;51.600;5.718;2023-01-29T12:12:37;26.90;;;15.40;;
68438;SDS011;55421;51.600;5.718;2023-01-29T12:17:57;28.40;;;13.40;;
68438;SDS011;55421;51.600;5.718;2023-01-29T12:20:34;24.80;;;13.30;;
68438;SDS011;55421;51.600;5.718;2023-01-29T12:23:25;24.80;;;13.10;;
68438;SDS011;55421;51.600;5.718;2023-01-29T12:32:13;25.90;;;13.30;;
68438;SDS011;55421;51.600;5.718;2023-01-29T12:34:55;26.40;;;14.40;;
68438;SDS011;55421;51.600;5.718;2023-01-29T12:40:45;28.50;;;15.50;;
68438;SDS011;55421;51.600;5.718;2023-01-29T12:43:39;28.60;;;15.20;;
68438;SDS011;55421;51.600;5.718;2023-01-29T12:46:21;23.00;;;12.60;;
68438;SDS011;55421;51.600;5.718;2023-01-29T12:48:54;29.00;;;14.90;;
68438;SDS011;55421;51.600;5.718;2023-01-29T12:51:41;27.90;;;14.60;;
68438;SDS011;55421;51.600;5.718;2023-01-29T12:54:18;29.10;;;15.00;;
68438;SDS011;55421;51.600;5.718;2023-01-29T12:56:55;27.40;;;14.40;;
68438;SDS011;55421;51.600;5.718;2023-01-29T13:02:34;32.60;;;16.90;;
68438;SDS011;55421;51.600;5.718;2023-01-29T13:05:28;32.40;;;17.00;;
68438;SDS011;55421;51.600;5.718;2023-01-29T13:08:05;34.60;;;16.60;;
68438;SDS011;55421;51.600;5.718;2023-01-29T13:10:37;28.80;;;14.90;;
68438;SDS011;55421;51.600;5.718;2023-01-29T13:13:30;28.50;;;15.60;;
68438;SDS011;55421;51.600;5.718;2023-01-29T13:16:04;31.40;;;15.00;;
68438;SDS011;55421;51.600;5.718;2023-01-29T13:18:57;30.10;;;15.60;;
68438;SDS011;55421;51.600;5.718;2023-01-29T13:21:46;28.70;;;15.50;;
68438;SDS011;55421;51.600;5.718;2023-01-29T13:24:16;26.60;;;14.80;;
68438;SDS011;55421;51.600;5.718;2023-01-29T13:26:46;30.70;;;16.10;;
68438;SDS011;55421;51.600;5.718;2023-01-29T13:29:22;22.00;;;12.20;;
68438;SDS011;55421;51.600;5.718;2023-01-29T13:31:53;33.90;;;17.80;;
68438;SDS011;55421;51.600;5.718;2023-01-29T13:34:24;28.20;;;14.10;;
68438;SDS011;55421;51.600;5.718;2023-01-29T13:37:29;31.10;;;15.70;;
68438;SDS011;55421;51.600;5.718;2023-01-29T13:39:56;30.80;;;16.00;;
68438;SDS011;55421;51.600;5.718;2023-01-29T13:42:46;31.20;;;16.40;;
68438;SDS011;55421;51.600;5.718;2023-01-29T13:48:07;29.60;;;15.90;;
68438;SDS011;55421;51.600;5.718;2023-01-29T13:50:50;34.90;;;17.80;;
68438;SDS011;55421;51.600;5.718;2023-01-29T13:53:26;32.70;;;16.60;;
68438;SDS011;55421;51.600;5.718;2023-01-29T13:59:00;35.20;;;17.20;;
68438;SDS011;55421;51.600;5.718;2023-01-29T14:06:54;29.10;;;15.20;;
68438;SDS011;55421;51.600;5.718;2023-01-29T14:17:19;36.30;;;19.80;;
68438;SDS011;55421;51.600;5.718;2023-01-29T14:20:02;34.00;;;18.20;;
68438;SDS011;55421;51.600;5.718;2023-01-29T14:22:53;32.70;;;17.50;;
68438;SDS011;55421;51.600;5.718;2023-01-29T14:25:28;29.50;;;16.00;;
68438;SDS011;55421;51.600;5.718;2023-01-29T14:28:01;29.30;;;14.80;;
68438;SDS011;55421;51.600;5.718;2023-01-29T14:30:31;34.40;;;17.80;;
68438;SDS011;55421;51.600;5.718;2023-01-29T14:33:00;40.60;;;19.90;;
68438;SDS011;55421;51.600;5.718;2023-01-29T14:35:29;29.20;;;16.00;;
68438;SDS011;55421;51.600;5.718;2023-01-29T14:38:04;38.20;;;18.40;;
68438;SDS011;55421;51.600;5.718;2023-01-29T14:40:31;30.00;;;15.40;;
68438;SDS011;55421;51.600;5.718;2023-01-29T14:43:05;31.80;;;17.10;;
68438;SDS011;55421;51.600;5.718;2023-01-29T14:45:36;36.40;;;19.40;;
68438;SDS011;55421;51.600;5.718;2023-01-29T14:50:39;34.70;;;16.90;;
68438;SDS011;55421;51.600;5.718;2023-01-29T14:53:17;37.90;;;19.20;;
68438;SDS011;55421;51.600;5.718;2023-01-29T14:56:03;28.80;;;15.20;;
68438;SDS011;55421;51.600;5.718;2023-01-29T14:58:42;32.60;;;15.90;;
68438;SDS011;55421;51.600;5.718;2023-01-29T15:01:25;30.90;;;15.80;;
68438;SDS011;55421;51.600;5.718;2023-01-29T15:04:16;29.30;;;14.70;;
68438;SDS011;55421;51.600;5.718;2023-01-29T15:07:02;35.70;;;17.90;;
68438;SDS011;55421;51.600;5.718;2023-01-29T15:09:50;36.80;;;17.00;;
68438;SDS011;55421;51.600;5.718;2023-01-29T15:12:42;33.10;;;17.50;;
68438;SDS011;55421;51.600;5.718;2023-01-29T15:18:53;34.70;;;18.00;;
68438;SDS011;55421;51.600;5.718;2023-01-29T15:21:23;37.80;;;18.80;;
68438;SDS011;55421;51.600;5.718;2023-01-29T15:24:04;32.60;;;17.10;;
68438;SDS011;55421;51.600;5.718;2023-01-29T15:26:32;39.30;;;17.80;;
68438;SDS011;55421;51.600;5.718;2023-01-29T15:29:01;33.60;;;17.90;;
68438;SDS011;55421;51.600;5.718;2023-01-29T15:31:28;33.90;;;16.50;;
68438;SDS011;55421;51.600;5.718;2023-01-29T15:33:55;38.10;;;18.40;;
68438;SDS011;55421;51.600;5.718;2023-01-29T15:36:22;34.10;;;16.40;;
68438;SDS011;55421;51.600;5.718;2023-01-29T15:41:37;33.80;;;17.10;;
68438;SDS011;55421;51.600;5.718;2023-01-29T15:44:12;33.30;;;17.30;;
68438;SDS011;55421;51.600;5.718;2023-01-29T15:46:44;34.20;;;17.50;;
68438;SDS011;55421;51.600;5.718;2023-01-29T15:49:23;31.20;;;16.50;;
68438;SDS011;55421;51.600;5.718;2023-01-29T15:52:02;25.90;;;13.40;;
68438;SDS011;55421;51.600;5.718;2023-01-29T15:54:32;30.30;;;15.00;;
68438;SDS011;55421;51.600;5.718;2023-01-29T15:57:01;29.70;;;15.00;;
68438;SDS011;55421;51.600;5.718;2023-01-29T15:59:32;36.20;;;16.70;;
68438;SDS011;55421;51.600;5.718;2023-01-29T16:02:20;29.30;;;15.20;;
68438;SDS011;55421;51.600;5.718;2023-01-29T16:04:54;30.20;;;15.80;;
68438;SDS011;55421;51.600;5.718;2023-01-29T16:07:21;33.70;;;16.50;;
68438;SDS011;55421;51.600;5.718;2023-01-29T16:09:48;33.20;;;17.20;;
68438;SDS011;55421;51.600;5.718;2023-01-29T16:12:17;29.90;;;14.90;;
68438;SDS011;55421;51.600;5.718;2023-01-29T16:14:44;31.60;;;16.20;;
68438;SDS011;55421;51.600;5.718;2023-01-29T16:17:26;29.50;;;15.10;;
68438;SDS011;55421;51.600;5.718;2023-01-29T16:20:06;26.60;;;13.60;;
68438;SDS011;55421;51.600;5.718;2023-01-29T16:22:45;30.70;;;14.50;;
68438;SDS011;55421;51.600;5.718;2023-01-29T16:25:13;29.20;;;15.70;;
68438;SDS011;55421;51.600;5.718;2023-01-29T16:27:42;33.40;;;17.10;;
68438;SDS011;55421;51.600;5.718;2023-01-29T16:30:13;32.60;;;17.00;;
68438;SDS011;55421;51.600;5.718;2023-01-29T16:32:41;33.00;;;15.50;;
68438;SDS011;55421;51.600;5.718;2023-01-29T16:35:14;34.30;;;16.00;;
68438;SDS011;55421;51.600;5.718;2023-01-29T16:37:46;30.40;;;15.70;;
68438;SDS011;55421;51.600;5.718;2023-01-29T16:40:25;30.90;;;15.10;;
68438;SDS011;55421;51.600;5.718;2023-01-29T16:46:27;32.40;;;16.80;;
68438;SDS011;55421;51.600;5.718;2023-01-29T16:49:00;28.60;;;14.30;;
68438;SDS011;55421;51.600;5.718;2023-01-29T16:51:29;29.20;;;14.20;;
68438;SDS011;55421;51.600;5.718;2023-01-29T16:54:09;29.90;;;14.30;;
68438;SDS011;55421;51.600;5.718;2023-01-29T16:56:38;28.60;;;14.70;;
68438;SDS011;55421;51.600;5.718;2023-01-29T16:59:05;32.30;;;14.60;;
68438;SDS011;55421;51.600;5.718;2023-01-29T17:01:38;31.20;;;15.80;;
68438;SDS011;55421;51.600;5.718;2023-01-29T17:04:08;35.40;;;16.60;;
68438;SDS011;55421;51.600;5.718;2023-01-29T17:06:41;31.50;;;15.50;;